此METAR来自2022年8月14日 15:55. 最近的
罗盘
风向 的 风向 170°
风: 8 kt, 3 beaufort

添加一条跑道以查看侧风和逆风信息。

添置 跑道
0 2.000 4.000 6.000 8.000 10.000
FEW 8.000 ft
METAR LIPI 141355Z 17008KT 9999 FEW080 30/13 Q1008

METAR Aviosuperficie AS77 - IT-0302

Aviosuperficie AS77是Mortegliano (UD),意大利中的小机场。 该领域的国际民航组织标志是IT-0302.

这份报告是针对2022年8月14日 15:55, 当地时间在Rivolto Air Base进行的。

机场观察

风向为170°,速度为8 kt。

可见度为10 km 或者更多。

有几云在8.000 ft的高度。 没有观察到天花板。

温度和风寒是30 °C。 露点为13 °C,相对湿度为35%。 海平面上的气压为1008 hPa (QNH)。

白天

今天,太阳从07:02升起,在18:52降落。 这适用于Aviosuperficie AS77,世界夏令时可能有所不同。 当地时间与世界标准时间之间的时差为+2 小时。 夏令时目前正在进行中。

公司介绍

我们没有关于这个机场的公司信息。

体会

到Vliegles.nl去找飞行课程,跳伞和其他飞行体验。 浏览页面,了解Aviosuperficie AS77附近所有可用的活动。 你也可以使用搜索功能来寻找你所在地附近的特定飞行课程、跳伞或其他飞行体验。

乌云

8.000 ft FEW 几云

温度 & 天气

温度 30 °C
露点 13 °C
相对湿度 35%
Kp-index 1 (0-9)

白天

日出
06:06
中午
13:12
日落
20:18

小工具

你想在你的网站上有一个关于Aviosuperficie AS77的当前航空天气(METAR)的小部件吗?

</> 显示HTML代码

我们和第三方通过cookies跟踪您在我们网站上的上网行为。如果您继续,我们认为您同意我们的cookie政策。 了解更多